Time;durP1;ratioP1;P1;durP2;ratioP2;P2;SDS_P1;SDS_P2;PMS_P1;PMS_P2;Temp;Humidity;BMP_temperature;BMP_pressure;BME280_temperature;BME280_humidity;BME280_pressure;Samples;Min_cycle;Max_cycle;Signal;HPM_P1;HPM_P2
2021/08/11 00:02:16;;;;;;;4.10;2.92;;;;;;;14.84;78.29;95911.05;1787076;79;21607;-60
2021/08/11 00:04:42;;;;;;;4.72;3.72;;;;;;;14.76;78.05;95913.94;1798707;79;21003;-59
2021/08/11 00:07:09;;;;;;;4.17;3.40;;;;;;;14.74;78.16;95905.17;1801813;79;21023;-59
2021/08/11 00:09:35;;;;;;;6.55;3.52;;;;;;;14.75;78.24;95902.05;1797557;79;21038;-59
2021/08/11 00:12:04;;;;;;;6.92;3.92;;;;;;;14.78;78.75;95905.93;1802327;79;21496;-59
2021/08/11 00:14:30;;;;;;;3.55;2.95;;;;;;;14.76;78.35;95903.31;1809232;79;21093;-59
2021/08/11 00:16:57;;;;;;;3.40;3.02;;;;;;;14.71;78.13;95895.47;1810970;79;21008;-59
2021/08/11 00:19:23;;;;;;;4.67;3.50;;;;;;;14.59;78.84;95902.50;1796060;79;21034;-59
2021/08/11 00:21:50;;;;;;;5.72;3.67;;;;;;;14.49;79.69;95902.33;1789788;79;21104;-59
2021/08/11 00:24:17;;;;;;;4.17;3.60;;;;;;;14.50;79.54;95906.25;1789893;79;21014;-59
2021/08/11 00:26:43;;;;;;;5.20;3.85;;;;;;;14.47;79.80;95906.80;1793707;79;21023;-59
2021/08/11 00:29:10;;;;;;;5.53;4.00;;;;;;;14.47;79.45;95899.70;1798098;79;21129;-59
2021/08/11 00:31:37;;;;;;;5.10;4.12;;;;;;;14.43;79.34;95900.70;1805826;79;21078;-59
2021/08/11 00:34:03;;;;;;;5.95;4.03;;;;;;;14.41;79.60;95899.00;1798769;79;21075;-60
2021/08/11 00:36:30;;;;;;;4.33;3.22;;;;;;;14.35;79.51;95901.37;1781963;79;21077;-59
2021/08/11 00:38:58;;;;;;;4.22;3.10;;;;;;;14.33;79.48;95899.69;1796076;79;21019;-59
2021/08/11 00:41:24;;;;;;;5.60;3.55;;;;;;;14.24;80.82;95900.37;1795085;79;21082;-59
2021/08/11 00:43:56;;;;;;;5.55;3.70;;;;;;;14.26;81.05;95897.22;1781841;79;20994;-59
2021/08/11 00:46:23;;;;;;;4.27;3.63;;;;;;;14.24;80.38;95895.06;1801516;79;21026;-59
2021/08/11 00:48:50;;;;;;;4.05;2.87;;;;;;;14.28;80.05;95893.17;1799465;79;21039;-60
2021/08/11 00:51:18;;;;;;;4.80;3.50;;;;;;;14.27;79.42;95894.97;1796711;79;21065;-59
2021/08/11 00:53:48;;;;;;;5.70;3.60;;;;;;;14.24;79.68;95891.08;1796712;79;21117;-59
2021/08/11 00:56:18;;;;;;;4.28;3.08;;;;;;;14.31;79.33;95895.73;1807676;79;21011;-59
2021/08/11 00:58:46;;;;;;;3.52;3.22;;;;;;;14.34;79.07;95894.34;1767067;79;21480;-59
2021/08/11 01:01:12;;;;;;;5.62;3.40;;;;;;;14.29;79.06;95894.47;1810679;79;21023;-59
2021/08/11 01:03:41;;;;;;;5.30;3.02;;;;;;;14.24;79.04;95892.41;1814849;79;21544;-59
2021/08/11 01:06:09;;;;;;;3.67;3.22;;;;;;;14.25;79.42;95899.91;1779833;79;21012;-60
2021/08/11 01:08:37;;;;;;;6.10;3.52;;;;;;;14.32;79.41;95898.82;1796894;79;20984;-59
2021/08/11 01:11:04;;;;;;;3.98;3.37;;;;;;;14.37;79.27;95900.89;1784666;78;21018;-59
2021/08/11 01:13:33;;;;;;;3.85;3.25;;;;;;;14.38;78.64;95897.30;1805302;79;21512;-59
2021/08/11 01:16:00;;;;;;;4.60;3.20;;;;;;;14.38;78.80;95895.11;1789336;79;21574;-59
2021/08/11 01:18:28;;;;;;;4.35;3.47;;;;;;;14.34;78.65;95900.98;1809851;79;21117;-59
2021/08/11 01:21:26;;;;;;;6.47;3.35;;;;;;;14.29;78.77;95891.81;1795994;79;21004;-59
2021/08/11 01:24:10;;;;;;;5.87;3.20;;;;;;;14.36;79.04;95896.94;1771867;79;21463;-60
2021/08/11 01:27:20;;;;;;;3.15;2.62;;;;;;;14.25;78.64;95891.94;1798811;79;21057;-59
2021/08/11 01:30:19;;;;;;;5.45;3.00;;;;;;;14.13;78.48;95893.14;1796036;79;21038;-59
2021/08/11 01:32:57;;;;;;;6.17;3.47;;;;;;;14.00;78.95;95891.75;1796095;79;21091;-60
2021/08/11 01:35:42;;;;;;;4.08;3.55;;;;;;;13.98;79.66;95890.45;1789012;79;21011;-59
2021/08/11 01:38:15;;;;;;;6.60;3.75;;;;;;;14.00;79.57;95889.95;1785366;79;21117;-60
2021/08/11 01:40:53;;;;;;;12.15;4.78;;;;;;;14.01;79.08;95894.38;1805093;79;21142;-59
2021/08/11 01:43:26;;;;;;;5.50;3.35;;;;;;;13.97;79.17;95893.16;1791470;79;20999;-59
2021/08/11 01:45:56;;;;;;;8.60;3.58;;;;;;;13.96;79.61;95898.94;1802303;79;21054;-59
2021/08/11 01:48:27;;;;;;;5.15;3.70;;;;;;;13.94;79.67;95893.25;1773569;80;21057;-59
2021/08/11 01:50:57;;;;;;;4.30;3.08;;;;;;;13.90;79.56;95899.08;1802008;79;21014;-59
2021/08/11 01:53:27;;;;;;;3.80;2.98;;;;;;;13.83;79.80;95896.17;1800685;79;21107;-59
2021/08/11 01:55:57;;;;;;;3.60;2.83;;;;;;;13.67;79.82;95897.03;1787197;79;21010;-59
2021/08/11 01:58:29;;;;;;;5.25;3.40;;;;;;;13.63;79.58;95892.71;1790839;79;21003;-59
2021/08/11 02:01:00;;;;;;;6.37;3.80;;;;;;;13.67;79.42;95894.84;1788747;79;21069;-59
2021/08/11 02:03:28;;;;;;;8.80;4.08;;;;;;;13.67;79.75;95901.02;1791144;79;21082;-59
2021/08/11 02:05:57;;;;;;;4.53;3.17;;;;;;;13.72;80.08;95899.58;1796318;79;21678;-59
2021/08/11 02:08:25;;;;;;;6.03;3.30;;;;;;;13.67;80.36;95904.99;1783937;79;21086;-59
2021/08/11 02:10:58;;;;;;;4.92;3.40;;;;;;;13.61;80.24;95903.84;1806375;79;21030;-59
2021/08/11 02:13:27;;;;;;;5.28;3.17;;;;;;;13.56;79.89;95911.03;1793782;79;20983;-59
2021/08/11 02:15:54;;;;;;;3.90;3.27;;;;;;;13.52;80.12;95910.69;1807539;79;21023;-59
2021/08/11 02:18:22;;;;;;;3.58;2.80;;;;;;;13.52;79.99;95901.41;1791604;79;21488;-59
2021/08/11 02:20:50;;;;;;;4.12;3.27;;;;;;;13.53;80.75;95909.77;1802111;79;21046;-59
2021/08/11 02:23:18;;;;;;;7.65;3.77;;;;;;;13.61;80.60;95895.88;1790066;79;21038;-59
2021/08/11 02:26:19;;;;;;;5.42;3.30;;;;;;;13.72;80.45;95893.81;1798919;79;21004;-59
2021/08/11 02:29:00;;;;;;;3.62;3.17;;;;;;;13.82;79.96;95890.00;1793691;79;21070;-58
2021/08/11 02:31:55;;;;;;;4.55;2.80;;;;;;;13.80;79.32;95894.47;1754627;80;21043;-59
2021/08/11 02:34:36;;;;;;;6.70;3.15;;;;;;;13.68;79.62;95894.78;1789780;79;21557;-59
2021/08/11 02:37:09;;;;;;;3.65;3.20;;;;;;;13.61;79.46;95898.53;1778973;79;21539;-59
2021/08/11 02:39:41;;;;;;;3.50;2.80;;;;;;;13.51;79.47;95887.29;1792775;79;20971;-59
2021/08/11 02:42:15;;;;;;;6.08;3.02;;;;;;;13.47;79.66;95898.00;1799162;79;21603;-59
2021/08/11 02:44:49;;;;;;;5.75;3.12;;;;;;;13.50;79.65;95884.20;1780263;79;21038;-59
2021/08/11 02:47:17;;;;;;;5.62;3.60;;;;;;;13.49;80.13;95882.47;1789826;79;21067;-59
2021/08/11 02:49:46;;;;;;;6.97;3.98;;;;;;;13.54;80.02;95884.55;1789701;79;21465;-58
2021/08/11 02:52:14;;;;;;;4.42;3.60;;;;;;;13.58;79.95;95886.66;1787323;79;21097;-59
2021/08/11 02:54:42;;;;;;;5.20;3.37;;;;;;;13.65;79.72;95877.64;1799472;79;21010;-59
2021/08/11 02:57:11;;;;;;;3.87;3.42;;;;;;;13.62;79.57;95875.08;1790756;79;21460;-59
2021/08/11 02:59:39;;;;;;;4.00;3.02;;;;;;;13.50;79.63;95880.23;1782276;79;20999;-59
2021/08/11 03:02:07;;;;;;;3.85;2.70;;;;;;;13.47;80.39;95886.07;1786358;79;21026;-59
2021/08/11 03:04:34;;;;;;;3.70;3.08;;;;;;;13.38;79.87;95892.03;1796655;79;21039;-59
2021/08/11 03:07:03;;;;;;;3.75;3.22;;;;;;;13.29;79.90;95892.70;1798123;79;21051;-59
2021/08/11 03:09:30;;;;;;;4.15;3.30;;;;;;;13.21;80.57;95894.19;1787040;79;21117;-59
2021/08/11 03:11:59;;;;;;;4.83;3.22;;;;;;;13.17;80.83;95901.77;1798894;79;20970;-59
2021/08/11 03:14:27;;;;;;;3.95;3.17;;;;;;;13.07;80.92;95897.61;1794826;79;21492;-59
2021/08/11 03:16:55;;;;;;;4.30;2.77;;;;;;;13.03;80.46;95897.25;1787107;79;21437;-59
2021/08/11 03:19:22;;;;;;;4.67;3.55;;;;;;;12.98;80.83;95894.73;1800546;79;21027;-59
2021/08/11 03:21:48;;;;;;;4.95;2.98;;;;;;;13.02;80.98;95889.77;1774311;79;20982;-59
2021/08/11 03:24:17;;;;;;;4.80;3.25;;;;;;;13.10;80.96;95905.05;1801673;79;20984;-59
2021/08/11 03:26:45;;;;;;;5.53;3.60;;;;;;;13.12;81.03;95893.06;1780688;79;21041;-59
2021/08/11 03:29:11;;;;;;;4.08;3.05;;;;;;;13.08;80.95;95894.94;1781145;79;21524;-59
2021/08/11 03:31:39;;;;;;;8.00;3.83;;;;;;;13.08;80.62;95891.38;1787144;79;21014;-58
2021/08/11 03:34:08;;;;;;;6.72;3.98;;;;;;;13.04;81.03;95899.01;1792160;79;21007;-59
2021/08/11 03:36:35;;;;;;;6.85;3.30;;;;;;;13.10;81.01;95893.13;1790167;79;21050;-59
2021/08/11 03:39:02;;;;;;;5.35;3.50;;;;;;;13.15;80.96;95893.88;1800919;79;21031;-60
2021/08/11 03:41:30;;;;;;;5.05;3.35;;;;;;;13.25;81.11;95897.62;1794864;79;21023;-59
2021/08/11 03:43:57;;;;;;;4.70;3.15;;;;;;;13.24;81.08;95896.75;1791365;79;21054;-59
2021/08/11 03:46:26;;;;;;;4.30;2.83;;;;;;;13.17;81.65;95899.99;1786705;79;21002;-59
2021/08/11 03:48:53;;;;;;;4.53;3.08;;;;;;;13.20;81.42;95901.70;1797927;79;21059;-59
2021/08/11 03:51:19;;;;;;;4.92;3.08;;;;;;;13.18;80.78;95900.89;1786547;79;21002;-59
2021/08/11 03:53:46;;;;;;;5.90;3.35;;;;;;;13.15;80.30;95903.59;1802646;79;21059;-59
2021/08/11 03:56:14;;;;;;;6.53;3.15;;;;;;;13.13;80.34;95904.10;1798646;79;21041;-58
2021/08/11 03:58:41;;;;;;;4.90;3.15;;;;;;;13.17;81.12;95901.77;1806345;79;20979;-59
2021/08/11 04:01:09;;;;;;;7.37;4.67;;;;;;;13.25;81.37;95901.59;1789662;79;21026;-59
2021/08/11 04:03:35;;;;;;;3.83;3.42;;;;;;;13.43;81.58;95906.50;1782438;79;21010;-59
2021/08/11 04:06:01;;;;;;;5.67;3.47;;;;;;;13.53;81.09;95906.69;1789715;79;21087;-59
2021/08/11 04:08:28;;;;;;;5.62;3.17;;;;;;;13.65;80.40;95906.80;1808945;79;21509;-59
2021/08/11 04:10:54;;;;;;;3.83;3.45;;;;;;;13.68;80.47;95908.05;1780551;79;21046;-59
2021/08/11 04:13:21;;;;;;;4.17;3.42;;;;;;;13.72;80.26;95902.23;1789535;79;21030;-59
2021/08/11 04:15:48;;;;;;;6.62;3.47;;;;;;;13.84;80.59;95907.22;1795756;79;21076;-59
2021/08/11 04:18:14;;;;;;;4.50;3.30;;;;;;;13.97;80.23;95909.95;1804560;79;20980;-59
2021/08/11 04:20:41;;;;;;;4.35;3.60;;;;;;;14.03;79.85;95907.11;1780729;79;21034;-59
2021/08/11 04:23:08;;;;;;;4.15;3.58;;;;;;;14.16;79.86;95908.11;1786928;79;21002;-61
2021/08/11 04:25:40;;;;;;;4.67;3.05;;;;;;;14.28;79.77;95915.27;1798805;79;20978;-59
2021/08/11 04:28:04;;;;;;;5.47;3.40;;;;;;;14.33;79.49;95910.30;1799738;79;21528;-60
2021/08/11 04:30:31;;;;;;;5.03;3.70;;;;;;;14.31;79.63;95910.33;1789164;79;21074;-59
2021/08/11 04:32:57;;;;;;;4.15;3.00;;;;;;;14.39;79.80;95912.34;1790698;79;21038;-59
2021/08/11 04:35:24;;;;;;;4.70;3.90;;;;;;;14.52;79.72;95914.64;1794853;79;21078;-59
2021/08/11 04:37:50;;;;;;;4.55;3.50;;;;;;;14.65;79.37;95914.27;1800276;79;21590;-58
2021/08/11 04:40:17;;;;;;;6.95;3.80;;;;;;;14.73;78.99;95909.19;1795981;79;21471;-59
2021/08/11 04:42:43;;;;;;;3.90;3.15;;;;;;;14.78;78.99;95910.78;1780755;80;21093;-59
2021/08/11 04:45:10;;;;;;;6.15;3.77;;;;;;;14.79;79.85;95909.88;1799427;79;21007;-59
2021/08/11 04:47:37;;;;;;;4.22;3.33;;;;;;;14.86;79.59;95910.08;1798372;79;21014;-59
2021/08/11 04:50:05;;;;;;;4.65;3.98;;;;;;;14.96;80.06;95908.48;1801568;79;21099;-59
2021/08/11 04:52:31;;;;;;;4.37;3.47;;;;;;;15.03;80.50;95902.93;1781494;79;21101;-59
2021/08/11 04:54:58;;;;;;;6.03;3.70;;;;;;;15.14;79.84;95899.93;1793179;79;21086;-59
2021/08/11 04:57:24;;;;;;;5.08;4.15;;;;;;;15.31;79.37;95904.72;1804704;79;21066;-58
2021/08/11 04:59:50;;;;;;;7.70;4.05;;;;;;;15.49;78.95;95909.89;1789443;79;21495;-59
2021/08/11 05:02:17;;;;;;;7.30;3.95;;;;;;;15.66;78.65;95904.89;1795945;79;21088;-59
2021/08/11 05:04:43;;;;;;;4.72;3.87;;;;;;;15.83;78.28;95907.48;1787253;79;21026;-60
2021/08/11 05:07:10;;;;;;;8.45;3.77;;;;;;;15.99;77.46;95908.21;1791908;79;21018;-60
2021/08/11 05:09:37;;;;;;;5.33;4.05;;;;;;;16.08;76.66;95910.17;1793056;79;21035;-59
2021/08/11 05:12:04;;;;;;;6.75;4.10;;;;;;;16.25;76.44;95909.08;1789949;79;21021;-59
2021/08/11 05:14:34;;;;;;;7.47;4.30;;;;;;;16.42;76.32;95908.48;1787145;79;21523;-59
2021/08/11 05:17:01;;;;;;;5.05;4.35;;;;;;;16.55;75.65;95905.77;1785229;79;21121;-59
2021/08/11 05:19:27;;;;;;;5.90;3.98;;;;;;;16.70;75.85;95906.13;1805384;79;21087;-59
2021/08/11 05:21:53;;;;;;;4.92;4.05;;;;;;;16.80;75.20;95902.22;1801731;79;21136;-59
2021/08/11 05:24:20;;;;;;;7.60;3.62;;;;;;;16.91;75.72;95906.69;1799495;79;21476;-59
2021/08/11 05:26:46;;;;;;;5.62;3.65;;;;;;;17.06;75.85;95911.89;1795315;79;21586;-59
2021/08/11 05:29:16;;;;;;;6.70;3.70;;;;;;;17.23;75.67;95902.73;1804691;79;21018;-60
2021/08/11 05:31:42;;;;;;;4.45;3.85;;;;;;;17.43;75.48;95910.41;1788379;79;21469;-60
2021/08/11 05:34:09;;;;;;;8.58;4.70;;;;;;;17.57;75.08;95912.06;1801791;79;21086;-60
2021/08/11 05:36:35;;;;;;;6.25;4.60;;;;;;;17.67;74.70;95896.08;1809062;79;21071;-59
2021/08/11 05:39:03;;;;;;;5.70;3.90;;;;;;;17.86;74.08;95908.67;1798796;79;21545;-59
2021/08/11 05:41:29;;;;;;;5.60;3.85;;;;;;;17.92;73.31;95905.76;1784018;79;21002;-59
2021/08/11 05:43:56;;;;;;;8.23;4.30;;;;;;;17.99;73.50;95915.22;1795982;79;21074;-59
2021/08/11 05:46:22;;;;;;;9.38;4.47;;;;;;;18.14;72.82;95918.59;1789730;79;21010;-59
2021/08/11 05:48:49;;;;;;;15.68;4.65;;;;;;;18.21;72.41;95912.97;1793449;79;20967;-60
2021/08/11 05:51:15;;;;;;;8.43;5.05;;;;;;;18.21;72.41;95912.97;1787965;79;21006;-59
2021/08/11 05:53:41;;;;;;;9.15;5.10;;;;;;;18.26;72.70;95909.16;1787322;79;21093;-59
2021/08/11 05:56:08;;;;;;;12.70;4.78;;;;;;;18.33;72.33;95920.45;1780660;79;21011;-59
2021/08/11 05:58:34;;;;;;;15.65;5.12;;;;;;;18.38;72.72;95917.11;1798822;79;20991;-59
2021/08/11 06:01:01;;;;;;;11.38;5.40;;;;;;;18.52;72.51;95908.46;1799016;79;21092;-60
2021/08/11 06:03:27;;;;;;;9.20;5.20;;;;;;;18.68;72.34;95912.67;1793341;79;20975;-59
2021/08/11 06:05:55;;;;;;;9.83;4.65;;;;;;;18.76;72.42;95901.19;1800029;79;21022;-59
2021/08/11 06:08:22;;;;;;;8.55;4.42;;;;;;;18.92;72.26;95906.68;1790259;79;20987;-59
2021/08/11 06:10:49;;;;;;;11.55;4.75;;;;;;;19.05;72.15;95913.66;1802509;79;21003;-59
2021/08/11 06:13:15;;;;;;;8.73;4.40;;;;;;;19.15;71.72;95908.27;1802519;79;21016;-60
2021/08/11 06:15:42;;;;;;;8.68;4.72;;;;;;;19.28;71.55;95912.12;1780707;80;20975;-59
2021/08/11 06:18:08;;;;;;;10.08;4.72;;;;;;;19.39;71.42;95907.11;1791184;79;21052;-59
2021/08/11 06:20:35;;;;;;;11.95;5.20;;;;;;;19.55;71.54;95905.02;1792003;79;21081;-59
2021/08/11 06:23:02;;;;;;;15.00;4.83;;;;;;;19.66;70.97;95906.71;1780704;80;21082;-58
2021/08/11 06:25:28;;;;;;;11.93;4.60;;;;;;;19.76;70.93;95904.48;1780823;79;21084;-59
2021/08/11 06:27:55;;;;;;;9.15;5.17;;;;;;;19.89;70.77;95897.56;1773008;79;21090;-59
2021/08/11 06:30:21;;;;;;;13.20;5.03;;;;;;;20.02;70.54;95898.66;1783639;79;21547;-59
2021/08/11 06:32:48;;;;;;;9.58;4.17;;;;;;;20.14;70.12;95904.35;1786950;79;21081;-59
2021/08/11 06:35:14;;;;;;;8.95;4.58;;;;;;;20.28;69.97;95903.14;1792485;79;20971;-59
2021/08/11 06:37:50;;;;;;;9.28;4.08;;;;;;;20.46;69.75;95902.65;1786757;79;21117;-59
2021/08/11 06:40:19;;;;;;;8.03;3.70;;;;;;;20.63;69.04;95902.66;1790014;79;21018;-59
2021/08/11 06:42:46;;;;;;;7.17;3.90;;;;;;;20.81;68.95;95900.80;1792243;79;21532;-59
2021/08/11 06:45:15;;;;;;;10.58;3.90;;;;;;;20.96;68.57;95901.34;1813722;79;21027;-59
2021/08/11 06:47:42;;;;;;;11.43;4.17;;;;;;;21.14;68.74;95896.77;1796010;79;21042;-59
2021/08/11 06:50:11;;;;;;;10.75;3.55;;;;;;;21.37;68.62;95899.98;1793507;79;21081;-59
2021/08/11 06:52:38;;;;;;;7.67;4.00;;;;;;;21.60;68.23;95891.50;1794202;79;21050;-59
2021/08/11 06:55:11;;;;;;;7.95;3.80;;;;;;;21.82;67.70;95896.96;1789849;79;21548;-59
2021/08/11 06:57:39;;;;;;;8.75;4.53;;;;;;;22.00;66.75;95897.25;1794213;79;20974;-59
2021/08/11 07:00:09;;;;;;;12.28;4.80;;;;;;;22.20;66.79;95892.52;1781104;79;20999;-59
2021/08/11 07:02:36;;;;;;;7.92;4.40;;;;;;;22.39;66.63;95893.63;1791801;79;21070;-59
2021/08/11 07:05:05;;;;;;;10.85;4.33;;;;;;;22.53;66.06;95894.13;1780646;79;21010;-59
2021/08/11 07:07:31;;;;;;;10.78;4.37;;;;;;;22.72;65.62;95887.15;1783029;79;21014;-59
2021/08/11 07:09:58;;;;;;;9.75;4.20;;;;;;;22.86;64.82;95892.05;1796754;79;21003;-59
2021/08/11 07:12:25;;;;;;;15.10;4.37;;;;;;;23.01;64.49;95885.37;1784054;79;21051;-59
2021/08/11 07:14:53;;;;;;;14.07;4.53;;;;;;;23.17;63.86;95889.28;1795090;79;21015;-59
2021/08/11 07:17:20;;;;;;;10.48;4.25;;;;;;;23.28;62.10;95882.27;1793863;79;21113;-59
2021/08/11 07:19:47;;;;;;;23.60;4.33;;;;;;;23.42;62.34;95881.84;1805304;79;20995;-59
2021/08/11 07:22:14;;;;;;;13.43;4.62;;;;;;;23.54;62.15;95882.39;1792735;79;21167;-59
2021/08/11 07:24:40;;;;;;;9.08;4.50;;;;;;;23.68;61.27;95885.52;1790051;79;21023;-59
2021/08/11 07:27:07;;;;;;;16.45;5.12;;;;;;;23.79;60.99;95878.98;1801988;79;21624;-59
2021/08/11 07:29:34;;;;;;;14.13;4.58;;;;;;;23.95;61.28;95877.46;1798486;79;20971;-59
2021/08/11 07:32:01;;;;;;;12.78;4.28;;;;;;;24.09;61.39;95884.14;1789695;79;21011;-59
2021/08/11 07:34:27;;;;;;;10.50;4.62;;;;;;;24.26;60.94;95878.92;1793184;79;21022;-60
2021/08/11 07:36:54;;;;;;;19.15;4.65;;;;;;;24.40;60.59;95874.80;1798877;79;21477;-60
2021/08/11 07:39:21;;;;;;;10.82;3.98;;;;;;;24.54;60.47;95879.27;1788243;79;21007;-60
2021/08/11 07:41:47;;;;;;;10.25;4.00;;;;;;;24.68;59.70;95874.27;1790859;79;21015;-59
2021/08/11 07:44:14;;;;;;;7.78;3.83;;;;;;;24.81;58.31;95873.77;1798536;79;21102;-59
2021/08/11 07:46:41;;;;;;;11.00;4.20;;;;;;;24.92;55.04;95874.38;1793073;79;21673;-60
2021/08/11 07:49:08;;;;;;;7.78;3.62;;;;;;;25.03;55.39;95871.77;1785008;79;21146;-60
2021/08/11 07:51:35;;;;;;;7.65;3.52;;;;;;;25.15;55.67;95874.08;1796613;79;21098;-60
2021/08/11 07:54:02;;;;;;;9.08;3.80;;;;;;;25.29;53.60;95872.23;1781076;79;21578;-59
2021/08/11 07:56:28;;;;;;;8.28;3.87;;;;;;;25.43;52.91;95862.16;1787292;79;21041;-59
2021/08/11 07:58:55;;;;;;;6.62;2.90;;;;;;;25.57;51.98;95858.42;1814495;79;21011;-60
2021/08/11 08:01:21;;;;;;;3.95;3.08;;;;;;;25.67;50.00;95859.95;1789376;79;21083;-59
2021/08/11 08:03:48;;;;;;;5.42;3.05;;;;;;;25.71;48.46;95863.31;1783304;79;21002;-59
2021/08/11 08:06:15;;;;;;;4.92;3.15;;;;;;;25.81;49.10;95858.94;1796112;79;21010;-60
2021/08/11 08:08:41;;;;;;;7.37;3.65;;;;;;;25.93;48.50;95862.57;1801151;79;21014;-60
2021/08/11 08:11:08;;;;;;;5.05;3.45;;;;;;;26.07;49.78;95864.61;1807834;79;21024;-59
2021/08/11 08:13:34;;;;;;;8.25;3.70;;;;;;;26.16;46.38;95862.17;1814770;79;21509;-59
2021/08/11 08:16:01;;;;;;;8.78;3.17;;;;;;;26.26;48.16;95863.22;1789846;79;21057;-60
2021/08/11 08:18:28;;;;;;;5.87;3.83;;;;;;;26.37;47.86;95860.54;1786279;79;20978;-59
2021/08/11 08:20:55;;;;;;;8.18;3.90;;;;;;;26.48;48.04;95862.41;1804168;79;21034;-60
2021/08/11 08:23:23;;;;;;;6.47;3.30;;;;;;;26.59;47.22;95865.19;1798973;79;21080;-59
2021/08/11 08:25:50;;;;;;;3.77;2.90;;;;;;;26.62;45.37;95860.88;1795351;79;21097;-60
2021/08/11 08:28:16;;;;;;;3.87;3.20;;;;;;;26.72;43.94;95860.52;1787352;79;21030;-59
2021/08/11 08:42:21;;;;;;;3.40;2.87;;;;;;;28.42;40.55;95861.13;1860296;77;23442;-60
2021/08/11 08:44:48;;;;;;;4.42;3.00;;;;;;;28.28;40.30;95869.61;1832552;78;20960;-61
2021/08/11 08:47:17;;;;;;;4.10;2.70;;;;;;;28.35;38.73;95866.70;1832214;78;21491;-60
2021/08/11 08:49:46;;;;;;;4.28;3.02;;;;;;;28.22;37.11;95858.75;1832278;78;21047;-60
2021/08/11 08:52:19;;;;;;;3.77;2.85;;;;;;;28.24;38.90;95851.35;1832278;78;20996;-60
2021/08/11 08:54:47;;;;;;;5.22;2.75;;;;;;;28.29;39.46;95851.81;1832206;78;21008;-60
2021/08/11 08:57:15;;;;;;;7.03;2.83;;;;;;;28.20;39.12;95850.77;1832356;78;21529;-60
2021/08/11 08:59:44;;;;;;;4.10;2.95;;;;;;;28.29;39.89;95849.61;1832291;78;20968;-60
2021/08/11 09:02:13;;;;;;;3.00;2.52;;;;;;;28.38;39.40;95852.40;1832004;78;21038;-60
2021/08/11 09:04:41;;;;;;;8.75;3.12;;;;;;;28.37;35.27;95849.80;1832337;78;21031;-60
2021/08/11 09:07:13;;;;;;;3.22;2.67;;;;;;;28.35;37.41;95859.92;1832189;78;21007;-60
2021/08/11 09:09:40;;;;;;;2.95;2.58;;;;;;;28.51;37.77;95852.73;1832612;78;21444;-60
2021/08/11 09:12:15;;;;;;;3.33;2.72;;;;;;;28.65;37.01;95858.70;1832379;78;21039;-60
2021/08/11 09:14:46;;;;;;;4.33;2.70;;;;;;;28.68;35.17;95852.14;1832083;78;21568;-60
2021/08/11 09:17:34;;;;;;;3.37;2.60;;;;;;;28.64;33.15;95853.39;1832335;78;21019;-60
2021/08/11 09:20:01;;;;;;;5.33;2.80;;;;;;;28.52;33.52;95852.58;1832154;78;21548;-61
2021/08/11 09:22:28;;;;;;;7.12;2.83;;;;;;;28.55;34.02;95847.39;1832055;78;21067;-60
2021/08/11 09:25:07;;;;;;;7.25;2.70;;;;;;;28.66;34.77;95844.63;1832459;78;21433;-60
2021/08/11 09:27:45;;;;;;;2.70;2.20;;;;;;;28.80;36.00;95845.61;1832325;78;21042;-60
2021/08/11 09:30:15;;;;;;;4.55;2.58;;;;;;;28.98;35.60;95846.35;1832269;78;21004;-60
2021/08/11 09:33:00;;;;;;;3.20;2.60;;;;;;;29.06;35.17;95848.80;1832191;78;20984;-60
2021/08/11 09:35:33;;;;;;;3.50;2.50;;;;;;;29.21;34.94;95852.02;1832224;78;20980;-60
2021/08/11 09:38:08;;;;;;;4.58;2.70;;;;;;;29.32;34.46;95845.11;1832311;78;21042;-60
2021/08/11 09:40:40;;;;;;;4.95;3.00;;;;;;;29.45;35.12;95848.09;1832271;78;21067;-60
2021/08/11 09:43:09;;;;;;;4.37;2.98;;;;;;;29.34;32.07;95848.55;1831691;78;21007;-60
2021/08/11 09:45:49;;;;;;;5.00;3.20;;;;;;;29.15;33.18;95847.62;1831727;78;21008;-60
2021/08/11 09:48:18;;;;;;;3.98;3.40;;;;;;;29.15;34.43;95850.34;1831271;78;21076;-60
2021/08/11 09:51:01;;;;;;;5.42;3.20;;;;;;;29.31;35.78;95852.06;1831860;78;20976;-60
2021/08/11 09:53:33;;;;;;;4.08;2.83;;;;;;;29.49;36.31;95857.70;1831869;78;21007;-60
2021/08/11 09:56:06;;;;;;;4.42;3.60;;;;;;;29.76;36.46;95852.98;1831889;78;21011;-60
2021/08/11 09:58:47;;;;;;;4.65;3.20;;;;;;;29.90;34.46;95849.87;1831976;78;21003;-60
2021/08/11 10:01:19;;;;;;;4.62;3.90;;;;;;;29.93;34.59;95846.00;1831493;78;21107;-60
2021/08/11 10:04:02;;;;;;;6.35;3.77;;;;;;;30.11;35.51;95847.52;1831712;78;21472;-61
2021/08/11 10:06:38;;;;;;;7.55;3.50;;;;;;;30.11;33.71;95857.05;1831837;78;21043;-60
2021/08/11 10:09:24;;;;;;;5.03;3.20;;;;;;;29.92;32.72;95846.51;1831699;78;21099;-61
2021/08/11 10:11:57;;;;;;;4.33;3.30;;;;;;;29.96;34.76;95846.59;1831799;78;21553;-60
2021/08/11 10:14:27;;;;;;;4.40;3.33;;;;;;;30.22;35.71;95839.73;1831752;78;21468;-60
2021/08/11 10:16:58;;;;;;;5.35;3.37;;;;;;;30.23;34.94;95841.45;1831563;78;21034;-60
2021/08/11 10:19:29;;;;;;;6.75;3.50;;;;;;;30.41;34.48;95841.95;1831901;78;20992;-60
2021/08/11 10:22:01;;;;;;;3.45;3.15;;;;;;;30.57;32.93;95840.53;1831763;78;21015;-60
2021/08/11 10:24:30;;;;;;;5.08;3.25;;;;;;;30.45;34.59;95840.33;1829883;78;21509;-60
2021/08/11 10:26:58;;;;;;;4.87;3.17;;;;;;;30.22;33.25;95844.67;1831739;78;21425;-61
2021/08/11 10:29:24;;;;;;;7.55;3.42;;;;;;;29.89;33.61;95840.00;1831680;78;21019;-60
2021/08/11 10:31:54;;;;;;;6.03;3.58;;;;;;;29.74;34.77;95840.91;1831672;78;21468;-60
2021/08/11 10:34:22;;;;;;;4.35;3.35;;;;;;;29.84;34.73;95842.79;1831615;78;21039;-60
2021/08/11 10:36:49;;;;;;;5.72;3.60;;;;;;;29.80;33.37;95835.91;1831680;78;21008;-60
2021/08/11 10:39:18;;;;;;;7.85;3.52;;;;;;;29.96;39.34;95840.27;1794573;78;20984;-60
2021/08/11 10:41:45;;;;;;;10.48;3.98;;;;;;;30.12;36.37;95837.86;1833443;78;21023;-60
2021/08/11 10:44:22;;;;;;;4.47;3.60;;;;;;;30.17;36.50;95836.08;1834825;78;21508;-60
2021/08/11 10:47:03;;;;;;;6.92;3.50;;;;;;;30.23;36.00;95839.58;1835348;78;21477;-60
2021/08/11 10:49:32;;;;;;;7.67;3.70;;;;;;;30.47;36.03;95835.60;1835176;78;21465;-60
2021/08/11 10:52:09;;;;;;;10.90;3.62;;;;;;;30.47;35.75;95833.73;1835067;78;21445;-60
2021/08/11 10:54:54;;;;;;;5.60;4.03;;;;;;;30.41;36.05;95832.42;1835383;78;20984;-60
2021/08/11 10:57:40;;;;;;;4.17;3.50;;;;;;;30.51;36.61;95836.50;1835268;78;21066;-60
2021/08/11 11:00:25;;;;;;;4.05;3.10;;;;;;;30.66;35.00;95837.42;1832049;78;21051;-61
2021/08/11 11:02:52;;;;;;;6.87;3.67;;;;;;;30.67;35.21;95838.65;1834685;78;21567;-60
2021/08/11 11:05:27;;;;;;;5.10;3.62;;;;;;;30.96;35.60;95830.93;1834776;78;21477;-61
2021/08/11 11:08:15;;;;;;;4.65;3.60;;;;;;;31.26;33.69;95824.36;1835179;78;21012;-60
2021/08/11 11:10:46;;;;;;;4.92;3.58;;;;;;;31.48;33.24;95818.55;1835452;78;21445;-60
2021/08/11 11:13:31;;;;;;;5.65;3.17;;;;;;;31.80;34.47;95824.52;1835025;78;21493;-60
2021/08/11 11:16:01;;;;;;;7.83;3.52;;;;;;;31.55;33.42;95824.26;1835207;78;20983;-60
2021/08/11 11:18:28;;;;;;;8.28;3.90;;;;;;;31.00;33.12;95825.04;1835016;78;20991;-60
2021/08/11 11:21:03;;;;;;;5.42;3.37;;;;;;;30.53;33.06;95823.61;1834700;78;21034;-60
2021/08/11 11:23:39;;;;;;;4.35;3.42;;;;;;;30.54;33.70;95828.06;1835229;78;21015;-60
2021/08/11 11:26:21;;;;;;;5.70;3.42;;;;;;;30.94;35.21;95818.80;1745986;81;21064;-60
2021/08/11 11:29:09;;;;;;;9.25;4.87;;;;;;;31.33;34.99;95816.45;1767648;81;21496;-60
2021/08/11 11:31:53;;;;;;;5.30;3.70;;;;;;;31.61;33.85;95810.00;1767955;81;21001;-60
2021/08/11 11:34:28;;;;;;;3.98;3.47;;;;;;;31.81;33.28;95810.73;1767461;81;21017;-60
2021/08/11 11:37:01;;;;;;;5.65;3.50;;;;;;;31.78;32.21;95811.05;1762953;81;20986;-60
2021/08/11 11:39:33;;;;;;;4.35;3.45;;;;;;;31.92;32.64;95806.91;1768251;81;21070;-60
2021/08/11 11:42:22;;;;;;;5.83;3.20;;;;;;;32.10;31.56;95807.83;1759392;81;21035;-61
2021/08/11 11:44:57;;;;;;;4.58;3.37;;;;;;;32.41;33.07;95806.53;1751258;82;21003;-60
2021/08/11 11:47:44;;;;;;;4.87;3.40;;;;;;;32.31;30.72;95799.82;1779758;80;21523;-60
2021/08/11 11:50:32;;;;;;;3.40;2.95;;;;;;;32.53;31.62;95802.56;1761203;81;21023;-60
2021/08/11 11:53:06;;;;;;;3.22;2.80;;;;;;;32.97;31.22;95798.44;1779592;81;21031;-60
2021/08/11 11:55:41;;;;;;;3.42;3.12;;;;;;;33.50;29.97;95788.30;1780167;81;20963;-60
2021/08/11 11:58:15;;;;;;;6.70;3.52;;;;;;;33.70;29.61;95788.91;1779887;81;21038;-60